createdAt,value
2018-08-07T00:00:30.359Z,52.60
2018-08-07T00:04:33.726Z,52.70
2018-08-07T00:08:37.095Z,52.60
2018-08-07T00:12:40.443Z,52.40
2018-08-07T00:16:43.809Z,53.10
2018-08-07T00:20:47.164Z,50.40
2018-08-07T00:24:50.499Z,52.60
2018-08-07T00:28:53.879Z,52.50
2018-08-07T00:32:57.179Z,54.50
2018-08-07T00:41:04.790Z,52.10
2018-08-07T00:45:10.559Z,53.70
2018-08-07T00:49:13.916Z,52.90
2018-08-07T00:53:17.248Z,52.60
2018-08-07T00:57:22.623Z,51.50
2018-08-07T01:01:25.983Z,52.40
2018-08-07T02:34:42.719Z,57.70
2018-08-07T02:38:46.084Z,53.50
2018-08-07T02:42:49.453Z,56.80
2018-08-07T02:46:52.818Z,56.50
2018-08-07T02:50:56.163Z,54.50
2018-08-07T02:54:59.475Z,54.80
2018-08-07T02:59:02.869Z,56.00
2018-08-07T03:03:06.202Z,55.00
2018-08-07T03:07:09.533Z,54.40
2018-08-07T03:11:12.948Z,56.20
2018-08-07T03:15:17.965Z,55.70
2018-08-07T03:19:21.316Z,55.50
2018-08-07T03:23:24.792Z,57.40
2018-08-07T03:27:28.178Z,54.90
2018-08-07T03:31:31.603Z,55.10
2018-08-07T03:35:35.007Z,57.20
2018-08-07T03:39:38.346Z,56.20
2018-08-07T03:43:41.704Z,55.40
2018-08-07T03:47:45.838Z,55.10
2018-08-07T03:51:50.044Z,56.70
2018-08-07T03:55:53.384Z,56.20
2018-08-07T03:59:56.761Z,56.60
2018-08-07T04:04:00.099Z,56.30
2018-08-07T04:08:04.115Z,56.50
2018-08-07T04:12:07.502Z,57.10
2018-08-07T04:16:12.073Z,55.90
2018-08-07T04:20:17.286Z,55.70
2018-08-07T04:24:20.731Z,55.30
2018-08-07T04:28:24.107Z,59.80
2018-08-07T04:32:27.439Z,55.80
2018-08-07T04:36:30.746Z,55.10
2018-08-07T04:40:34.073Z,56.00
2018-08-07T04:44:37.400Z,55.20
2018-08-07T04:48:40.754Z,57.40
2018-08-07T04:52:44.176Z,55.30
2018-08-07T04:56:47.570Z,54.50
2018-08-07T05:00:50.940Z,57.30
2018-08-07T05:04:54.307Z,56.60
2018-08-07T05:08:59.099Z,56.70
2018-08-07T05:13:02.446Z,56.00
2018-08-07T05:17:05.759Z,56.50
2018-08-07T05:21:09.238Z,55.50
2018-08-07T05:25:13.103Z,56.20
2018-08-07T05:29:16.448Z,57.30
2018-08-07T05:33:19.815Z,56.20
2018-08-07T05:37:23.139Z,55.90
2018-08-07T05:41:26.502Z,55.30
2018-08-07T05:45:29.859Z,55.10
2018-08-07T05:53:41.676Z,54.70
2018-08-07T05:57:44.993Z,54.60
2018-08-07T06:01:48.446Z,54.70
2018-08-07T06:05:51.771Z,54.00
2018-08-07T06:09:55.107Z,53.80
2018-08-07T06:13:58.446Z,53.80
2018-08-07T06:18:01.746Z,53.50
2018-08-07T06:22:05.119Z,53.40
2018-08-07T06:26:09.130Z,54.20
2018-08-07T06:30:17.214Z,56.40
2018-08-07T06:34:20.566Z,53.70
2018-08-07T06:38:24.204Z,55.00
2018-08-07T06:42:27.587Z,53.80
2018-08-07T06:46:30.923Z,54.60
2018-08-07T06:50:34.278Z,53.60
2018-08-07T06:54:37.843Z,53.00
2018-08-07T06:58:41.236Z,53.20
2018-08-07T07:02:44.638Z,52.80
2018-08-07T07:06:47.946Z,52.50
2018-08-07T07:10:51.267Z,52.90
2018-08-07T07:14:54.662Z,52.30
2018-08-07T07:18:58.006Z,52.30
2018-08-07T07:23:01.314Z,52.10
2018-08-07T07:27:04.651Z,52.10
2018-08-07T07:31:08.136Z,52.10
2018-08-07T07:35:11.473Z,52.00
2018-08-07T07:39:14.846Z,52.00
2018-08-07T07:43:18.176Z,51.80
2018-08-07T07:47:21.582Z,52.00
2018-08-07T07:51:24.923Z,51.50
2018-08-07T07:55:28.271Z,52.00
2018-08-07T07:59:31.636Z,51.70
2018-08-07T08:03:34.950Z,51.60
2018-08-07T08:07:39.035Z,51.70
2018-08-07T08:11:42.448Z,52.30
2018-08-07T08:15:45.808Z,51.80
2018-08-07T08:19:49.158Z,51.50
2018-08-07T08:23:52.485Z,51.40
2018-08-07T08:27:55.835Z,51.30
2018-08-07T08:31:59.171Z,51.20
2018-08-07T08:36:02.555Z,50.40
2018-08-07T08:40:06.499Z,51.00
2018-08-07T08:44:09.842Z,51.00
2018-08-07T08:48:13.201Z,51.10
2018-08-07T08:52:16.536Z,51.10
2018-08-07T08:56:19.894Z,51.60
2018-08-07T09:00:28.618Z,51.20
2018-08-07T09:04:31.943Z,51.10
2018-08-07T09:08:35.279Z,50.90
2018-08-07T09:12:38.617Z,51.30
2018-08-07T09:16:41.988Z,50.60
2018-08-07T09:20:45.323Z,49.50
2018-08-07T09:24:48.634Z,51.10
2018-08-07T09:28:51.994Z,49.80
2018-08-07T09:32:56.040Z,50.80
2018-08-07T09:36:59.366Z,50.80
2018-08-07T09:41:02.723Z,50.40
2018-08-07T09:45:06.804Z,50.80
2018-08-07T09:49:10.191Z,50.70
2018-08-07T09:53:13.543Z,49.70
2018-08-07T09:57:16.918Z,50.80
2018-08-07T10:01:25.771Z,50.20
2018-08-07T10:05:30.720Z,50.80
2018-08-07T10:09:33.931Z,48.80
2018-08-07T10:13:37.302Z,49.90
2018-08-07T10:17:40.632Z,49.70
2018-08-07T10:21:44.175Z,50.20
2018-08-07T10:25:47.744Z,48.20
2018-08-07T10:29:51.323Z,50.40
2018-08-07T10:33:54.844Z,49.50
2018-08-07T10:37:58.431Z,47.60
2018-08-07T10:42:02.021Z,48.60
2018-08-07T10:46:05.390Z,48.50
2018-08-07T10:50:12.285Z,48.00
2018-08-07T10:54:16.691Z,48.20
2018-08-07T10:58:20.075Z,47.50
2018-08-07T11:02:23.455Z,46.90
2018-08-07T11:06:26.766Z,48.20
2018-08-07T11:10:30.448Z,48.80
2018-08-07T11:14:33.775Z,47.60
2018-08-07T11:18:37.143Z,42.00
2018-08-07T11:22:40.619Z,45.30
2018-08-07T11:26:43.971Z,46.80
2018-08-07T11:30:47.419Z,45.80
2018-08-07T11:34:50.968Z,41.00
2018-08-07T11:38:54.298Z,40.20
2018-08-07T11:42:58.135Z,45.70
2018-08-07T11:47:01.475Z,44.80
2018-08-07T11:51:04.839Z,42.20
2018-08-07T11:55:09.605Z,45.60
2018-08-07T11:59:17.390Z,42.30
2018-08-07T12:03:20.726Z,41.00
2018-08-07T12:07:24.043Z,41.10
2018-08-07T12:11:27.540Z,39.10
2018-08-07T12:15:30.900Z,42.40
2018-08-07T12:19:34.278Z,42.00
2018-08-07T12:23:37.789Z,38.10
2018-08-07T12:27:41.414Z,41.50
2018-08-07T12:31:44.695Z,40.80
2018-08-07T12:35:48.066Z,38.10
2018-08-07T12:39:51.434Z,41.60
2018-08-07T12:43:54.831Z,38.80
2018-08-07T12:48:00.191Z,41.70
2018-08-07T12:52:03.615Z,42.90
2018-08-07T12:56:07.867Z,37.50
2018-08-07T13:04:15.672Z,41.10
2018-08-07T13:08:19.886Z,38.60
2018-08-07T13:12:23.199Z,39.90
2018-08-07T13:16:26.594Z,39.50
2018-08-07T13:20:29.946Z,36.00
2018-08-07T13:24:33.279Z,38.20
2018-08-07T13:28:36.645Z,37.50
2018-08-07T13:32:40.173Z,35.70
2018-08-07T13:36:43.506Z,35.20
2018-08-07T13:40:46.862Z,36.60
2018-08-07T13:44:51.059Z,35.20
2018-08-07T13:48:54.408Z,31.20
2018-08-07T13:52:57.875Z,33.60
2018-08-07T13:57:01.351Z,31.70
2018-08-07T14:01:04.800Z,34.60
2018-08-07T14:05:09.263Z,35.60
2018-08-07T14:09:12.630Z,33.10
2018-08-07T14:17:19.022Z,34.90
2018-08-07T14:21:22.355Z,36.20
2018-08-07T14:25:27.108Z,36.20
2018-08-07T14:29:30.480Z,37.30
2018-08-07T14:33:33.794Z,37.10
2018-08-07T14:37:37.186Z,32.80
2018-08-07T14:41:40.589Z,37.00
2018-08-07T14:45:43.947Z,36.40
2018-08-07T14:49:47.269Z,35.70
2018-08-07T14:53:50.667Z,36.70
2018-08-07T14:57:54.193Z,37.60
2018-08-07T15:01:57.543Z,36.10
2018-08-07T15:06:00.892Z,33.50
2018-08-07T15:10:05.241Z,35.80
2018-08-07T15:14:09.941Z,36.40
2018-08-07T15:18:13.280Z,34.80
2018-08-07T15:22:16.638Z,36.70
2018-08-07T15:26:19.971Z,36.90
2018-08-07T15:30:24.507Z,34.90
2018-08-07T15:34:27.868Z,33.60
2018-08-07T15:38:31.380Z,37.10
2018-08-07T15:42:34.812Z,36.00
2018-08-07T15:46:38.186Z,35.50
2018-08-07T15:50:41.530Z,33.10
2018-08-07T15:54:44.960Z,36.10
2018-08-07T15:58:48.343Z,30.10
2018-08-07T16:02:51.729Z,32.60
2018-08-07T16:06:55.114Z,34.90
2018-08-07T16:10:58.552Z,33.80
2018-08-07T16:15:01.868Z,33.90
2018-08-07T16:19:05.350Z,35.60
2018-08-07T16:23:08.722Z,36.00
2018-08-07T16:27:12.120Z,31.40
2018-08-07T16:31:15.622Z,31.30
2018-08-07T16:35:18.992Z,32.10
2018-08-07T16:39:22.375Z,29.90
2018-08-07T16:43:25.713Z,30.70
2018-08-07T16:47:29.048Z,29.60
2018-08-07T16:51:32.428Z,29.70
2018-08-07T16:55:35.774Z,28.80
2018-08-07T16:59:39.204Z,30.20
2018-08-07T17:03:42.558Z,32.80
2018-08-07T17:07:46.437Z,31.10
2018-08-07T17:11:49.810Z,33.80
2018-08-07T17:15:53.265Z,30.80
2018-08-07T17:19:56.639Z,31.00
2018-08-07T17:23:59.998Z,30.80
2018-08-07T17:28:03.451Z,32.70
2018-08-07T17:32:07.394Z,30.50
2018-08-07T17:36:10.800Z,31.40
2018-08-07T17:40:15.436Z,32.90
2018-08-07T17:44:18.770Z,32.00
2018-08-07T17:48:22.150Z,32.50
2018-08-07T17:52:25.515Z,33.70
2018-08-07T17:56:29.059Z,34.50
2018-08-07T18:00:32.471Z,34.20
2018-08-07T18:04:35.815Z,33.60
2018-08-07T18:08:39.195Z,34.50
2018-08-07T18:12:42.573Z,34.10
2018-08-07T18:16:45.990Z,34.40
2018-08-07T18:20:49.340Z,35.10
2018-08-07T18:24:52.702Z,35.80
2018-08-07T18:28:56.067Z,34.90
2018-08-07T18:32:59.420Z,35.50
2018-08-07T18:37:02.826Z,36.10
2018-08-07T18:41:06.321Z,35.10
2018-08-07T18:45:11.612Z,36.10
2018-08-07T18:49:14.998Z,36.50
2018-08-07T18:53:18.380Z,36.20
2018-08-07T18:57:21.801Z,36.80
2018-08-07T19:01:25.200Z,36.80
2018-08-07T19:05:28.556Z,37.40
2018-08-07T19:09:31.969Z,36.70
2018-08-07T19:13:35.351Z,37.10
2018-08-07T19:17:38.911Z,37.50
2018-08-07T19:21:42.417Z,37.70
2018-08-07T19:29:48.984Z,38.30
2018-08-07T19:33:52.387Z,38.60
2018-08-07T19:37:55.754Z,38.60
2018-08-07T19:41:59.115Z,38.70
2018-08-07T19:46:02.901Z,38.90
2018-08-07T19:50:07.567Z,39.00
2018-08-07T19:58:18.637Z,39.40
2018-08-07T20:02:22.010Z,39.30
2018-08-07T20:06:25.575Z,39.40
2018-08-07T20:10:29.031Z,39.60
2018-08-07T20:14:32.423Z,39.60
2018-08-07T20:18:35.746Z,39.90
2018-08-07T20:22:39.179Z,40.20
2018-08-07T20:26:45.552Z,41.10
2018-08-07T20:30:49.088Z,42.50
2018-08-07T20:34:52.402Z,43.50
2018-08-07T20:38:55.720Z,43.00
2018-08-07T20:42:59.515Z,42.30
2018-08-07T20:47:02.888Z,41.70
2018-08-07T20:51:06.520Z,41.30
2018-08-07T20:55:09.863Z,42.50
2018-08-07T20:59:13.221Z,42.00
2018-08-07T21:03:16.599Z,41.50
2018-08-07T21:07:19.956Z,41.80
2018-08-07T21:11:23.387Z,43.10
2018-08-07T21:15:26.942Z,44.30
2018-08-07T21:19:30.278Z,44.20
2018-08-07T21:23:33.649Z,44.70
2018-08-07T21:27:37.019Z,44.00
2018-08-07T21:31:40.499Z,43.60
2018-08-07T21:35:43.928Z,43.80
2018-08-07T21:39:47.602Z,43.60
2018-08-07T21:43:51.846Z,43.70
2018-08-07T21:47:55.726Z,43.70
2018-08-07T21:51:59.231Z,44.40
2018-08-07T21:56:02.583Z,43.60
2018-08-07T22:00:14.482Z,43.90
2018-08-07T22:04:17.889Z,44.60
2018-08-07T22:08:21.259Z,44.20
2018-08-07T22:12:25.683Z,43.80
2018-08-07T22:16:29.221Z,44.20
2018-08-07T22:20:32.563Z,44.70
2018-08-07T22:24:35.881Z,44.50
2018-08-07T22:28:39.279Z,44.30
2018-08-07T22:32:42.842Z,45.70
2018-08-07T22:36:46.211Z,44.80
2018-08-07T22:40:49.824Z,46.00
2018-08-07T22:44:54.142Z,45.10
2018-08-07T22:48:57.661Z,45.00
2018-08-07T22:53:01.162Z,45.20
2018-08-07T22:57:06.108Z,45.50
2018-08-07T23:01:09.567Z,45.40
2018-08-07T23:05:14.071Z,44.90
2018-08-07T23:09:17.453Z,44.70
2018-08-07T23:13:20.877Z,46.10
2018-08-07T23:17:25.071Z,45.50
2018-08-07T23:21:28.474Z,45.60
2018-08-07T23:25:33.155Z,46.00
2018-08-07T23:29:36.504Z,46.00
2018-08-07T23:33:39.861Z,46.10
2018-08-07T23:37:43.467Z,45.60
2018-08-07T23:41:47.147Z,46.20
2018-08-07T23:45:50.487Z,46.50
2018-08-07T23:49:53.919Z,47.30
2018-08-07T23:53:57.311Z,46.30
2018-08-07T23:58:00.670Z,48.40
